Huntsville Municipal Airport Huntsville US
ICAO: KUTS
IATA: UTS
Category: Medium
Scheduled Services: No

Elevation: 363 ft
TransAlt. 18000 ft.

Airport Communications:
ASOS:119.425
HOUSTON CNTR:134.8
MONTGOMERY CO RDO:122.3
CTAF/UNICOM:122.8

KUTS Zoom In..

If you have problems with the map follow the link
https://www.worldairports.se/pages/airport.php?
ICAO=KUTS

Runways:

(A) RW 18 length 5005 ft width 100 ft
---- / hdg 180

(B) RW 36 length 5005 ft width 100 ft
---- / hdg 360

Location; KUTS
Day. 11 / Time. 13.53 Zulu
* Altimeter: 30.52
* Temperature: 05° c. 41°f.
* Wind from: VRB° Speed 04 kn.
Dewpoint: 02° c.
Visibility: 10 Statute Miles.
Clouds: Overcast 1200 ft.

KUTS 111353Z AUTO VRB04KT 10SM OVC012 05/02 A3052 RMK AO2 SLP336 T00500017


Wind From VRB°
Speed 04 kn.

 
 
jpsmedia worldairports.se 2019   terms of use